sensor_id;sensor_type;location;lat;lon;timestamp;temperature;humidity
11067;DHT22;29763;50.904;5.530;2022-07-06T00:01:26;12.90;99.90
11067;DHT22;29763;50.904;5.530;2022-07-06T00:03:53;12.80;99.90
11067;DHT22;29763;50.904;5.530;2022-07-06T00:06:21;12.80;99.90
11067;DHT22;29763;50.904;5.530;2022-07-06T00:08:48;12.70;99.90
11067;DHT22;29763;50.904;5.530;2022-07-06T00:11:14;12.70;99.90
11067;DHT22;29763;50.904;5.530;2022-07-06T00:13:41;12.70;99.90
11067;DHT22;29763;50.904;5.530;2022-07-06T00:16:07;12.70;99.90
11067;DHT22;29763;50.904;5.530;2022-07-06T00:18:34;12.60;99.90
11067;DHT22;29763;50.904;5.530;2022-07-06T00:21:00;12.60;99.90
11067;DHT22;29763;50.904;5.530;2022-07-06T00:23:27;12.60;99.90
11067;DHT22;29763;50.904;5.530;2022-07-06T00:25:54;12.50;99.90
11067;DHT22;29763;50.904;5.530;2022-07-06T00:28:20;12.50;99.90
11067;DHT22;29763;50.904;5.530;2022-07-06T00:30:46;12.50;99.90
11067;DHT22;29763;50.904;5.530;2022-07-06T00:33:11;12.40;99.90
11067;DHT22;29763;50.904;5.530;2022-07-06T00:35:37;12.30;99.90
11067;DHT22;29763;50.904;5.530;2022-07-06T00:38:04;12.30;99.90
11067;DHT22;29763;50.904;5.530;2022-07-06T00:40:31;12.30;99.90
11067;DHT22;29763;50.904;5.530;2022-07-06T00:42:59;12.30;99.90
11067;DHT22;29763;50.904;5.530;2022-07-06T00:45:27;12.20;99.90
11067;DHT22;29763;50.904;5.530;2022-07-06T00:47:54;12.20;99.90
11067;DHT22;29763;50.904;5.530;2022-07-06T00:50:23;12.20;99.90
11067;DHT22;29763;50.904;5.530;2022-07-06T00:52:59;12.20;99.90
11067;DHT22;29763;50.904;5.530;2022-07-06T00:55:28;12.20;99.90
11067;DHT22;29763;50.904;5.530;2022-07-06T00:57:56;12.10;99.90
11067;DHT22;29763;50.904;5.530;2022-07-06T01:00:25;11.90;99.90
11067;DHT22;29763;50.904;5.530;2022-07-06T01:02:54;11.80;99.90
11067;DHT22;29763;50.904;5.530;2022-07-06T01:05:26;11.80;99.90
11067;DHT22;29763;50.904;5.530;2022-07-06T01:07:53;11.80;99.90
11067;DHT22;29763;50.904;5.530;2022-07-06T01:10:21;11.80;99.90
11067;DHT22;29763;50.904;5.530;2022-07-06T01:12:50;11.80;99.90
11067;DHT22;29763;50.904;5.530;2022-07-06T01:15:18;11.80;99.90
11067;DHT22;29763;50.904;5.530;2022-07-06T01:17:47;11.70;99.90
11067;DHT22;29763;50.904;5.530;2022-07-06T01:20:21;11.70;99.90
11067;DHT22;29763;50.904;5.530;2022-07-06T01:22:49;11.70;99.90
11067;DHT22;29763;50.904;5.530;2022-07-06T01:25:19;11.70;99.90
11067;DHT22;29763;50.904;5.530;2022-07-06T01:27:47;11.70;99.90
11067;DHT22;29763;50.904;5.530;2022-07-06T01:30:15;11.70;99.90
11067;DHT22;29763;50.904;5.530;2022-07-06T01:32:41;11.70;99.90
11067;DHT22;29763;50.904;5.530;2022-07-06T01:35:12;11.60;99.90
11067;DHT22;29763;50.904;5.530;2022-07-06T01:37:38;11.60;99.90
11067;DHT22;29763;50.904;5.530;2022-07-06T01:40:07;11.50;99.90
11067;DHT22;29763;50.904;5.530;2022-07-06T01:42:35;11.50;99.90
11067;DHT22;29763;50.904;5.530;2022-07-06T01:45:04;11.50;99.90
11067;DHT22;29763;50.904;5.530;2022-07-06T01:47:30;11.40;99.90
11067;DHT22;29763;50.904;5.530;2022-07-06T01:50:05;11.40;99.90
11067;DHT22;29763;50.904;5.530;2022-07-06T01:52:34;11.40;99.90
11067;DHT22;29763;50.904;5.530;2022-07-06T01:55:01;11.40;99.90
11067;DHT22;29763;50.904;5.530;2022-07-06T01:57:27;11.30;99.90
11067;DHT22;29763;50.904;5.530;2022-07-06T01:59:52;11.30;99.90
11067;DHT22;29763;50.904;5.530;2022-07-06T02:02:18;11.20;99.90
11067;DHT22;29763;50.904;5.530;2022-07-06T02:04:45;11.20;99.90
11067;DHT22;29763;50.904;5.530;2022-07-06T02:07:11;11.20;99.90
11067;DHT22;29763;50.904;5.530;2022-07-06T02:09:38;11.20;99.90
11067;DHT22;29763;50.904;5.530;2022-07-06T02:12:05;11.10;99.90
11067;DHT22;29763;50.904;5.530;2022-07-06T02:14:35;11.10;99.90
11067;DHT22;29763;50.904;5.530;2022-07-06T02:17:01;11.00;99.90
11067;DHT22;29763;50.904;5.530;2022-07-06T02:19:27;11.00;99.90
11067;DHT22;29763;50.904;5.530;2022-07-06T02:21:54;10.90;99.90
11067;DHT22;29763;50.904;5.530;2022-07-06T02:24:20;11.00;99.90
11067;DHT22;29763;50.904;5.530;2022-07-06T02:26:45;10.90;99.90
11067;DHT22;29763;50.904;5.530;2022-07-06T02:29:12;10.90;99.90
11067;DHT22;29763;50.904;5.530;2022-07-06T02:31:39;10.90;99.90
11067;DHT22;29763;50.904;5.530;2022-07-06T02:34:05;10.90;99.90
11067;DHT22;29763;50.904;5.530;2022-07-06T02:36:39;10.90;99.90
11067;DHT22;29763;50.904;5.530;2022-07-06T02:39:04;10.80;99.90
11067;DHT22;29763;50.904;5.530;2022-07-06T02:41:31;10.80;99.90
11067;DHT22;29763;50.904;5.530;2022-07-06T02:44:03;10.70;99.90
11067;DHT22;29763;50.904;5.530;2022-07-06T02:46:29;10.70;99.90
11067;DHT22;29763;50.904;5.530;2022-07-06T02:48:55;10.70;99.90
11067;DHT22;29763;50.904;5.530;2022-07-06T02:51:23;10.70;99.90
11067;DHT22;29763;50.904;5.530;2022-07-06T02:53:50;10.70;99.90
11067;DHT22;29763;50.904;5.530;2022-07-06T02:56:17;10.60;99.90
11067;DHT22;29763;50.904;5.530;2022-07-06T02:58:44;10.60;99.90
11067;DHT22;29763;50.904;5.530;2022-07-06T03:01:12;10.60;99.90
11067;DHT22;29763;50.904;5.530;2022-07-06T03:03:38;10.60;99.90
11067;DHT22;29763;50.904;5.530;2022-07-06T03:06:23;10.50;99.90
11067;DHT22;29763;50.904;5.530;2022-07-06T03:08:50;10.50;99.90
11067;DHT22;29763;50.904;5.530;2022-07-06T03:11:16;10.50;99.90
11067;DHT22;29763;50.904;5.530;2022-07-06T03:13:43;10.30;99.90
11067;DHT22;29763;50.904;5.530;2022-07-06T03:16:09;10.30;99.90
11067;DHT22;29763;50.904;5.530;2022-07-06T03:18:35;10.30;99.90
11067;DHT22;29763;50.904;5.530;2022-07-06T03:21:04;10.30;99.90
11067;DHT22;29763;50.904;5.530;2022-07-06T03:23:32;10.30;99.90
11067;DHT22;29763;50.904;5.530;2022-07-06T03:26:00;10.30;99.90
11067;DHT22;29763;50.904;5.530;2022-07-06T03:28:28;10.30;99.90
11067;DHT22;29763;50.904;5.530;2022-07-06T03:30:59;10.30;99.90
11067;DHT22;29763;50.904;5.530;2022-07-06T03:33:25;10.30;99.90
11067;DHT22;29763;50.904;5.530;2022-07-06T03:35:51;10.30;99.90
11067;DHT22;29763;50.904;5.530;2022-07-06T03:38:17;10.20;99.90
11067;DHT22;29763;50.904;5.530;2022-07-06T03:40:44;10.20;99.90
11067;DHT22;29763;50.904;5.530;2022-07-06T03:43:19;10.20;99.90
11067;DHT22;29763;50.904;5.530;2022-07-06T03:45:49;10.20;99.90
11067;DHT22;29763;50.904;5.530;2022-07-06T03:48:32;10.20;99.90
11067;DHT22;29763;50.904;5.530;2022-07-06T03:51:11;10.10;99.90
11067;DHT22;29763;50.904;5.530;2022-07-06T03:53:41;10.10;99.90
11067;DHT22;29763;50.904;5.530;2022-07-06T03:56:19;10.10;99.90
11067;DHT22;29763;50.904;5.530;2022-07-06T03:59:09;10.20;99.90
11067;DHT22;29763;50.904;5.530;2022-07-06T04:01:52;10.10;99.90
11067;DHT22;29763;50.904;5.530;2022-07-06T04:04:54;10.20;99.90
11067;DHT22;29763;50.904;5.530;2022-07-06T04:11:10;10.30;99.90
11067;DHT22;29763;50.904;5.530;2022-07-06T04:17:31;10.30;99.90
11067;DHT22;29763;50.904;5.530;2022-07-06T04:23:01;10.40;99.90
11067;DHT22;29763;50.904;5.530;2022-07-06T04:25:30;10.40;99.90
11067;DHT22;29763;50.904;5.530;2022-07-06T04:34:07;10.40;99.90
11067;DHT22;29763;50.904;5.530;2022-07-06T04:36:47;10.40;99.90
11067;DHT22;29763;50.904;5.530;2022-07-06T04:39:13;10.50;99.90
11067;DHT22;29763;50.904;5.530;2022-07-06T04:41:50;10.60;99.90
11067;DHT22;29763;50.904;5.530;2022-07-06T04:44:27;10.60;99.90
11067;DHT22;29763;50.904;5.530;2022-07-06T04:47:21;10.50;99.90
11067;DHT22;29763;50.904;5.530;2022-07-06T04:50:12;10.50;99.90
11067;DHT22;29763;50.904;5.530;2022-07-06T04:53:04;10.60;99.90
11067;DHT22;29763;50.904;5.530;2022-07-06T04:55:39;10.70;99.90
11067;DHT22;29763;50.904;5.530;2022-07-06T04:58:12;10.70;99.90
11067;DHT22;29763;50.904;5.530;2022-07-06T05:00:47;10.90;99.90
11067;DHT22;29763;50.904;5.530;2022-07-06T05:03:21;11.00;99.90
11067;DHT22;29763;50.904;5.530;2022-07-06T05:05:49;11.20;99.90
11067;DHT22;29763;50.904;5.530;2022-07-06T05:08:17;11.40;99.90
11067;DHT22;29763;50.904;5.530;2022-07-06T05:10:43;11.60;99.90
11067;DHT22;29763;50.904;5.530;2022-07-06T05:13:09;11.80;99.90
11067;DHT22;29763;50.904;5.530;2022-07-06T05:15:36;12.00;99.90
11067;DHT22;29763;50.904;5.530;2022-07-06T05:18:03;12.30;99.90
11067;DHT22;29763;50.904;5.530;2022-07-06T05:20:30;12.60;99.90
11067;DHT22;29763;50.904;5.530;2022-07-06T05:22:55;12.90;99.90
11067;DHT22;29763;50.904;5.530;2022-07-06T05:25:21;13.20;99.90
11067;DHT22;29763;50.904;5.530;2022-07-06T05:27:48;13.50;99.90
11067;DHT22;29763;50.904;5.530;2022-07-06T05:30:14;13.60;99.90
11067;DHT22;29763;50.904;5.530;2022-07-06T05:32:43;13.90;99.90
11067;DHT22;29763;50.904;5.530;2022-07-06T05:35:15;14.10;99.90
11067;DHT22;29763;50.904;5.530;2022-07-06T05:37:43;14.40;99.90
11067;DHT22;29763;50.904;5.530;2022-07-06T05:40:15;14.70;99.90
11067;DHT22;29763;50.904;5.530;2022-07-06T05:42:45;15.00;99.90
11067;DHT22;29763;50.904;5.530;2022-07-06T05:45:11;15.30;99.90
11067;DHT22;29763;50.904;5.530;2022-07-06T05:47:39;15.50;99.90
11067;DHT22;29763;50.904;5.530;2022-07-06T05:50:23;15.80;99.90
11067;DHT22;29763;50.904;5.530;2022-07-06T05:53:02;16.10;99.90
11067;DHT22;29763;50.904;5.530;2022-07-06T05:55:30;16.40;99.90
11067;DHT22;29763;50.904;5.530;2022-07-06T05:58:03;16.60;99.90
11067;DHT22;29763;50.904;5.530;2022-07-06T06:00:29;16.90;99.90
11067;DHT22;29763;50.904;5.530;2022-07-06T06:02:56;17.20;99.90
11067;DHT22;29763;50.904;5.530;2022-07-06T06:05:30;17.50;99.90
11067;DHT22;29763;50.904;5.530;2022-07-06T06:07:56;17.90;99.90
11067;DHT22;29763;50.904;5.530;2022-07-06T06:10:22;18.20;99.90
11067;DHT22;29763;50.904;5.530;2022-07-06T06:12:49;18.50;99.90
11067;DHT22;29763;50.904;5.530;2022-07-06T06:15:16;18.90;99.90
11067;DHT22;29763;50.904;5.530;2022-07-06T06:17:42;19.10;99.90
11067;DHT22;29763;50.904;5.530;2022-07-06T06:20:10;19.20;99.90
11067;DHT22;29763;50.904;5.530;2022-07-06T06:25:21;19.40;99.90
11067;DHT22;29763;50.904;5.530;2022-07-06T06:27:47;19.40;99.90
11067;DHT22;29763;50.904;5.530;2022-07-06T06:30:14;19.40;99.90
11067;DHT22;29763;50.904;5.530;2022-07-06T06:32:43;19.40;99.90
11067;DHT22;29763;50.904;5.530;2022-07-06T06:35:10;19.30;99.90
11067;DHT22;29763;50.904;5.530;2022-07-06T06:37:39;19.20;99.90
11067;DHT22;29763;50.904;5.530;2022-07-06T06:40:07;19.00;99.90
11067;DHT22;29763;50.904;5.530;2022-07-06T06:42:38;18.80;99.90
11067;DHT22;29763;50.904;5.530;2022-07-06T06:45:08;18.70;99.90
11067;DHT22;29763;50.904;5.530;2022-07-06T06:47:35;18.60;99.90
11067;DHT22;29763;50.904;5.530;2022-07-06T06:50:03;18.30;99.90
11067;DHT22;29763;50.904;5.530;2022-07-06T06:52:31;18.30;99.90
11067;DHT22;29763;50.904;5.530;2022-07-06T06:54:58;18.30;99.90
11067;DHT22;29763;50.904;5.530;2022-07-06T06:57:25;18.40;99.90
11067;DHT22;29763;50.904;5.530;2022-07-06T06:59:51;18.50;99.90
11067;DHT22;29763;50.904;5.530;2022-07-06T07:02:17;18.80;99.90
11067;DHT22;29763;50.904;5.530;2022-07-06T07:04:44;19.10;99.90
11067;DHT22;29763;50.904;5.530;2022-07-06T07:07:11;19.40;99.90
11067;DHT22;29763;50.904;5.530;2022-07-06T07:09:36;19.70;99.90
11067;DHT22;29763;50.904;5.530;2022-07-06T07:12:04;20.00;99.90
11067;DHT22;29763;50.904;5.530;2022-07-06T07:14:31;20.10;99.90
11067;DHT22;29763;50.904;5.530;2022-07-06T07:17:03;20.10;99.90
11067;DHT22;29763;50.904;5.530;2022-07-06T07:19:29;20.40;99.90
11067;DHT22;29763;50.904;5.530;2022-07-06T07:21:56;21.00;99.90
11067;DHT22;29763;50.904;5.530;2022-07-06T07:24:24;21.50;99.90
11067;DHT22;29763;50.904;5.530;2022-07-06T07:26:50;21.70;99.90
11067;DHT22;29763;50.904;5.530;2022-07-06T07:29:16;22.20;99.90
11067;DHT22;29763;50.904;5.530;2022-07-06T07:31:41;22.50;99.90
11067;DHT22;29763;50.904;5.530;2022-07-06T07:34:07;22.70;99.90
11067;DHT22;29763;50.904;5.530;2022-07-06T07:36:34;22.90;99.90
11067;DHT22;29763;50.904;5.530;2022-07-06T07:39:01;22.60;99.90
11067;DHT22;29763;50.904;5.530;2022-07-06T07:41:27;22.70;99.90
11067;DHT22;29763;50.904;5.530;2022-07-06T07:43:54;22.90;99.90
11067;DHT22;29763;50.904;5.530;2022-07-06T07:46:20;23.20;99.90
11067;DHT22;29763;50.904;5.530;2022-07-06T07:48:46;23.30;99.60
11067;DHT22;29763;50.904;5.530;2022-07-06T07:51:13;23.60;98.40
11067;DHT22;29763;50.904;5.530;2022-07-06T07:53:40;24.00;97.60
11067;DHT22;29763;50.904;5.530;2022-07-06T07:56:06;24.00;96.60
11067;DHT22;29763;50.904;5.530;2022-07-06T07:58:31;24.10;97.00
11067;DHT22;29763;50.904;5.530;2022-07-06T08:00:57;24.70;97.10
11067;DHT22;29763;50.904;5.530;2022-07-06T08:03:23;25.10;96.00
11067;DHT22;29763;50.904;5.530;2022-07-06T08:05:50;25.10;95.70
11067;DHT22;29763;50.904;5.530;2022-07-06T08:08:16;25.10;94.70
11067;DHT22;29763;50.904;5.530;2022-07-06T08:10:44;25.20;94.50
11067;DHT22;29763;50.904;5.530;2022-07-06T08:13:10;25.30;94.50
11067;DHT22;29763;50.904;5.530;2022-07-06T08:15:45;25.70;94.20
11067;DHT22;29763;50.904;5.530;2022-07-06T08:18:12;26.00;93.60
11067;DHT22;29763;50.904;5.530;2022-07-06T08:20:40;26.50;93.40
11067;DHT22;29763;50.904;5.530;2022-07-06T08:23:05;26.80;92.80
11067;DHT22;29763;50.904;5.530;2022-07-06T08:25:35;26.80;90.80
11067;DHT22;29763;50.904;5.530;2022-07-06T08:28:02;26.70;90.00
11067;DHT22;29763;50.904;5.530;2022-07-06T08:30:32;25.80;89.60
11067;DHT22;29763;50.904;5.530;2022-07-06T08:33:00;24.90;91.20
11067;DHT22;29763;50.904;5.530;2022-07-06T08:35:28;24.70;92.20
11067;DHT22;29763;50.904;5.530;2022-07-06T08:37:56;24.80;92.00
11067;DHT22;29763;50.904;5.530;2022-07-06T08:40:23;25.20;92.50
11067;DHT22;29763;50.904;5.530;2022-07-06T08:42:53;25.30;91.60
11067;DHT22;29763;50.904;5.530;2022-07-06T08:45:20;25.40;91.70
11067;DHT22;29763;50.904;5.530;2022-07-06T08:47:51;25.50;91.40
11067;DHT22;29763;50.904;5.530;2022-07-06T08:50:20;25.60;91.20
11067;DHT22;29763;50.904;5.530;2022-07-06T08:52:52;25.70;91.30
11067;DHT22;29763;50.904;5.530;2022-07-06T08:55:22;25.90;90.70
11067;DHT22;29763;50.904;5.530;2022-07-06T08:57:47;26.20;90.10
11067;DHT22;29763;50.904;5.530;2022-07-06T09:00:15;26.30;90.40
11067;DHT22;29763;50.904;5.530;2022-07-06T09:02:43;26.30;89.70
11067;DHT22;29763;50.904;5.530;2022-07-06T09:05:14;26.30;89.50
11067;DHT22;29763;50.904;5.530;2022-07-06T09:07:49;26.30;87.50
11067;DHT22;29763;50.904;5.530;2022-07-06T09:10:18;26.30;88.10
11067;DHT22;29763;50.904;5.530;2022-07-06T09:12:48;26.20;88.30
11067;DHT22;29763;50.904;5.530;2022-07-06T09:15:14;25.90;88.40
11067;DHT22;29763;50.904;5.530;2022-07-06T09:17:42;25.80;87.80
11067;DHT22;29763;50.904;5.530;2022-07-06T09:20:10;25.90;86.90
11067;DHT22;29763;50.904;5.530;2022-07-06T09:22:37;26.20;87.80
11067;DHT22;29763;50.904;5.530;2022-07-06T09:25:09;26.60;86.30
11067;DHT22;29763;50.904;5.530;2022-07-06T09:27:40;27.20;84.00
11067;DHT22;29763;50.904;5.530;2022-07-06T09:30:26;27.10;85.40
11067;DHT22;29763;50.904;5.530;2022-07-06T09:33:17;27.30;85.40
11067;DHT22;29763;50.904;5.530;2022-07-06T09:35:43;27.70;82.60
11067;DHT22;29763;50.904;5.530;2022-07-06T09:38:11;27.80;82.60
11067;DHT22;29763;50.904;5.530;2022-07-06T09:40:43;27.50;81.30
11067;DHT22;29763;50.904;5.530;2022-07-06T09:43:22;26.70;82.60
11067;DHT22;29763;50.904;5.530;2022-07-06T09:45:51;26.30;83.70
11067;DHT22;29763;50.904;5.530;2022-07-06T09:48:20;26.30;86.50
11067;DHT22;29763;50.904;5.530;2022-07-06T09:51:02;25.80;86.10
11067;DHT22;29763;50.904;5.530;2022-07-06T09:53:29;25.60;87.20
11067;DHT22;29763;50.904;5.530;2022-07-06T09:56:03;25.80;86.80
11067;DHT22;29763;50.904;5.530;2022-07-06T09:58:30;25.90;85.90
11067;DHT22;29763;50.904;5.530;2022-07-06T10:00:59;26.20;86.30
11067;DHT22;29763;50.904;5.530;2022-07-06T10:03:25;26.50;81.50
11067;DHT22;29763;50.904;5.530;2022-07-06T10:05:53;26.30;82.80
11067;DHT22;29763;50.904;5.530;2022-07-06T10:08:20;26.00;84.60
11067;DHT22;29763;50.904;5.530;2022-07-06T10:10:46;26.10;85.00
11067;DHT22;29763;50.904;5.530;2022-07-06T10:13:14;26.20;84.50
11067;DHT22;29763;50.904;5.530;2022-07-06T10:15:45;26.10;83.10
11067;DHT22;29763;50.904;5.530;2022-07-06T10:18:14;26.10;83.90
11067;DHT22;29763;50.904;5.530;2022-07-06T10:20:40;26.00;85.70
11067;DHT22;29763;50.904;5.530;2022-07-06T10:23:09;25.80;86.60
11067;DHT22;29763;50.904;5.530;2022-07-06T10:25:37;25.70;87.00
11067;DHT22;29763;50.904;5.530;2022-07-06T10:28:05;25.70;87.10
11067;DHT22;29763;50.904;5.530;2022-07-06T10:30:39;26.10;87.70
11067;DHT22;29763;50.904;5.530;2022-07-06T10:33:06;26.20;85.50
11067;DHT22;29763;50.904;5.530;2022-07-06T10:35:32;26.00;86.10
11067;DHT22;29763;50.904;5.530;2022-07-06T10:38:18;25.80;86.10
11067;DHT22;29763;50.904;5.530;2022-07-06T10:40:45;25.70;86.50
11067;DHT22;29763;50.904;5.530;2022-07-06T10:43:45;25.70;86.40
11067;DHT22;29763;50.904;5.530;2022-07-06T10:46:16;25.90;86.40
11067;DHT22;29763;50.904;5.530;2022-07-06T10:48:53;25.90;86.70
11067;DHT22;29763;50.904;5.530;2022-07-06T10:51:25;25.80;86.10
11067;DHT22;29763;50.904;5.530;2022-07-06T10:53:56;25.60;83.10
11067;DHT22;29763;50.904;5.530;2022-07-06T10:59:22;25.50;86.30
11067;DHT22;29763;50.904;5.530;2022-07-06T11:02:11;25.70;87.00
11067;DHT22;29763;50.904;5.530;2022-07-06T11:04:38;25.70;86.70
11067;DHT22;29763;50.904;5.530;2022-07-06T11:07:16;25.40;87.80
11067;DHT22;29763;50.904;5.530;2022-07-06T11:09:57;25.20;87.60
11067;DHT22;29763;50.904;5.530;2022-07-06T11:12:25;24.90;87.60
11067;DHT22;29763;50.904;5.530;2022-07-06T11:14:52;25.10;88.40
11067;DHT22;29763;50.904;5.530;2022-07-06T11:17:20;25.00;89.60
11067;DHT22;29763;50.904;5.530;2022-07-06T11:19:59;25.20;88.50
11067;DHT22;29763;50.904;5.530;2022-07-06T11:22:36;25.60;88.50
11067;DHT22;29763;50.904;5.530;2022-07-06T11:25:05;25.80;86.20
11067;DHT22;29763;50.904;5.530;2022-07-06T11:27:34;26.30;86.10
11067;DHT22;29763;50.904;5.530;2022-07-06T11:30:00;26.90;86.20
11067;DHT22;29763;50.904;5.530;2022-07-06T11:32:27;27.20;85.10
11067;DHT22;29763;50.904;5.530;2022-07-06T11:34:53;27.50;85.20
11067;DHT22;29763;50.904;5.530;2022-07-06T11:37:19;27.20;84.90
11067;DHT22;29763;50.904;5.530;2022-07-06T11:39:47;27.10;85.50
11067;DHT22;29763;50.904;5.530;2022-07-06T11:42:16;27.10;84.60
11067;DHT22;29763;50.904;5.530;2022-07-06T11:44:45;27.00;83.60
11067;DHT22;29763;50.904;5.530;2022-07-06T11:47:13;27.00;83.80
11067;DHT22;29763;50.904;5.530;2022-07-06T11:49:40;27.00;82.70
11067;DHT22;29763;50.904;5.530;2022-07-06T11:52:10;26.70;82.40
11067;DHT22;29763;50.904;5.530;2022-07-06T11:54:37;26.00;83.50
11067;DHT22;29763;50.904;5.530;2022-07-06T11:57:07;25.50;85.70
11067;DHT22;29763;50.904;5.530;2022-07-06T11:59:36;25.50;88.90
11067;DHT22;29763;50.904;5.530;2022-07-06T12:02:11;25.70;88.60
11067;DHT22;29763;50.904;5.530;2022-07-06T12:04:40;26.30;87.10
11067;DHT22;29763;50.904;5.530;2022-07-06T12:07:11;27.00;85.50
11067;DHT22;29763;50.904;5.530;2022-07-06T12:09:45;27.50;85.50
11067;DHT22;29763;50.904;5.530;2022-07-06T12:12:15;27.60;83.00
11067;DHT22;29763;50.904;5.530;2022-07-06T12:14:42;27.60;84.80
11067;DHT22;29763;50.904;5.530;2022-07-06T12:17:11;27.80;82.30
11067;DHT22;29763;50.904;5.530;2022-07-06T12:19:42;28.10;82.70
11067;DHT22;29763;50.904;5.530;2022-07-06T12:22:23;28.30;82.60
11067;DHT22;29763;50.904;5.530;2022-07-06T12:24:49;28.20;81.60
11067;DHT22;29763;50.904;5.530;2022-07-06T12:27:19;28.40;81.70
11067;DHT22;29763;50.904;5.530;2022-07-06T12:29:46;28.40;81.50
11067;DHT22;29763;50.904;5.530;2022-07-06T12:35:06;28.50;83.40
11067;DHT22;29763;50.904;5.530;2022-07-06T12:37:33;28.60;82.10
11067;DHT22;29763;50.904;5.530;2022-07-06T12:40:14;28.40;83.40
11067;DHT22;29763;50.904;5.530;2022-07-06T12:42:47;28.10;81.90
11067;DHT22;29763;50.904;5.530;2022-07-06T12:45:34;27.90;82.10
11067;DHT22;29763;50.904;5.530;2022-07-06T12:48:02;28.00;82.50
11067;DHT22;29763;50.904;5.530;2022-07-06T12:52:59;28.00;84.70
11067;DHT22;29763;50.904;5.530;2022-07-06T12:55:29;28.60;83.00
11067;DHT22;29763;50.904;5.530;2022-07-06T12:57:57;28.80;81.40
11067;DHT22;29763;50.904;5.530;2022-07-06T13:00:25;29.10;81.40
11067;DHT22;29763;50.904;5.530;2022-07-06T13:02:55;29.40;80.20
11067;DHT22;29763;50.904;5.530;2022-07-06T13:05:26;29.00;79.40
11067;DHT22;29763;50.904;5.530;2022-07-06T13:07:55;28.50;80.00
11067;DHT22;29763;50.904;5.530;2022-07-06T13:10:23;28.00;82.20
11067;DHT22;29763;50.904;5.530;2022-07-06T13:12:51;27.80;82.90
11067;DHT22;29763;50.904;5.530;2022-07-06T13:15:17;27.80;82.50
11067;DHT22;29763;50.904;5.530;2022-07-06T13:17:43;27.90;82.10
11067;DHT22;29763;50.904;5.530;2022-07-06T13:20:11;28.10;81.00
11067;DHT22;29763;50.904;5.530;2022-07-06T13:22:38;28.20;82.40
11067;DHT22;29763;50.904;5.530;2022-07-06T13:25:06;28.20;82.10
11067;DHT22;29763;50.904;5.530;2022-07-06T13:27:32;28.60;81.90
11067;DHT22;29763;50.904;5.530;2022-07-06T13:30:07;29.00;80.90
11067;DHT22;29763;50.904;5.530;2022-07-06T13:32:34;29.30;81.30
11067;DHT22;29763;50.904;5.530;2022-07-06T13:34:59;29.00;81.00
11067;DHT22;29763;50.904;5.530;2022-07-06T13:37:25;29.40;81.00
11067;DHT22;29763;50.904;5.530;2022-07-06T13:39:51;28.90;80.90
11067;DHT22;29763;50.904;5.530;2022-07-06T13:42:20;28.90;81.10
11067;DHT22;29763;50.904;5.530;2022-07-06T13:44:48;28.90;82.20
11067;DHT22;29763;50.904;5.530;2022-07-06T13:47:18;29.10;80.60
11067;DHT22;29763;50.904;5.530;2022-07-06T13:49:44;29.10;83.90
11067;DHT22;29763;50.904;5.530;2022-07-06T13:52:13;29.40;84.00
11067;DHT22;29763;50.904;5.530;2022-07-06T13:54:39;29.70;80.40
11067;DHT22;29763;50.904;5.530;2022-07-06T13:57:06;29.90;80.10
11067;DHT22;29763;50.904;5.530;2022-07-06T13:59:41;29.80;78.50
11067;DHT22;29763;50.904;5.530;2022-07-06T14:02:08;29.80;78.80
11067;DHT22;29763;50.904;5.530;2022-07-06T14:04:34;29.90;78.70
11067;DHT22;29763;50.904;5.530;2022-07-06T14:07:01;30.20;79.80
11067;DHT22;29763;50.904;5.530;2022-07-06T14:09:33;30.10;78.90
11067;DHT22;29763;50.904;5.530;2022-07-06T14:11:59;29.80;77.80
11067;DHT22;29763;50.904;5.530;2022-07-06T14:14:25;29.30;78.20
11067;DHT22;29763;50.904;5.530;2022-07-06T14:16:53;28.50;79.20
11067;DHT22;29763;50.904;5.530;2022-07-06T14:19:23;27.90;80.60
11067;DHT22;29763;50.904;5.530;2022-07-06T14:21:51;27.30;82.10
11067;DHT22;29763;50.904;5.530;2022-07-06T14:24:16;26.70;83.80
11067;DHT22;29763;50.904;5.530;2022-07-06T14:26:44;26.30;84.00
11067;DHT22;29763;50.904;5.530;2022-07-06T14:29:10;26.50;85.70
11067;DHT22;29763;50.904;5.530;2022-07-06T14:31:37;27.00;85.30
11067;DHT22;29763;50.904;5.530;2022-07-06T14:34:05;27.50;84.00
11067;DHT22;29763;50.904;5.530;2022-07-06T14:36:32;27.90;83.10
11067;DHT22;29763;50.904;5.530;2022-07-06T14:38:59;28.10;81.40
11067;DHT22;29763;50.904;5.530;2022-07-06T14:41:28;28.30;83.10
11067;DHT22;29763;50.904;5.530;2022-07-06T14:43:55;28.70;83.00
11067;DHT22;29763;50.904;5.530;2022-07-06T14:46:22;29.00;80.20
11067;DHT22;29763;50.904;5.530;2022-07-06T14:48:48;29.30;81.60
11067;DHT22;29763;50.904;5.530;2022-07-06T14:51:14;29.70;80.50
11067;DHT22;29763;50.904;5.530;2022-07-06T14:53:43;29.60;78.90
11067;DHT22;29763;50.904;5.530;2022-07-06T14:56:13;29.50;79.00
11067;DHT22;29763;50.904;5.530;2022-07-06T14:58:40;29.50;79.50
11067;DHT22;29763;50.904;5.530;2022-07-06T15:01:06;29.40;79.60
11067;DHT22;29763;50.904;5.530;2022-07-06T15:03:31;29.10;79.00
11067;DHT22;29763;50.904;5.530;2022-07-06T15:05:58;29.00;80.10
11067;DHT22;29763;50.904;5.530;2022-07-06T15:08:24;29.00;79.30
11067;DHT22;29763;50.904;5.530;2022-07-06T15:10:50;29.30;80.40
11067;DHT22;29763;50.904;5.530;2022-07-06T15:13:19;29.70;80.10
11067;DHT22;29763;50.904;5.530;2022-07-06T15:15:49;29.50;78.00
11067;DHT22;29763;50.904;5.530;2022-07-06T15:18:15;28.60;79.10
11067;DHT22;29763;50.904;5.530;2022-07-06T15:20:41;28.20;81.20
11067;DHT22;29763;50.904;5.530;2022-07-06T15:23:08;28.10;82.20
11067;DHT22;29763;50.904;5.530;2022-07-06T15:25:36;28.10;83.20
11067;DHT22;29763;50.904;5.530;2022-07-06T15:28:03;28.00;82.20
11067;DHT22;29763;50.904;5.530;2022-07-06T15:30:29;28.20;82.40
11067;DHT22;29763;50.904;5.530;2022-07-06T15:32:58;28.60;80.90
11067;DHT22;29763;50.904;5.530;2022-07-06T15:35:26;28.40;80.60
11067;DHT22;29763;50.904;5.530;2022-07-06T15:37:52;28.40;81.60
11067;DHT22;29763;50.904;5.530;2022-07-06T15:40:47;28.40;82.30
11067;DHT22;29763;50.904;5.530;2022-07-06T15:43:22;28.20;81.30
11067;DHT22;29763;50.904;5.530;2022-07-06T15:46:03;28.20;82.80
11067;DHT22;29763;50.904;5.530;2022-07-06T15:48:35;28.20;82.30
11067;DHT22;29763;50.904;5.530;2022-07-06T15:51:02;28.20;83.00
11067;DHT22;29763;50.904;5.530;2022-07-06T15:53:29;27.90;83.90
11067;DHT22;29763;50.904;5.530;2022-07-06T15:55:57;27.50;83.50
11067;DHT22;29763;50.904;5.530;2022-07-06T15:58:26;27.40;83.90
11067;DHT22;29763;50.904;5.530;2022-07-06T16:01:07;27.40;83.60
11067;DHT22;29763;50.904;5.530;2022-07-06T16:03:37;27.60;85.10
11067;DHT22;29763;50.904;5.530;2022-07-06T16:06:04;27.60;84.20
11067;DHT22;29763;50.904;5.530;2022-07-06T16:08:33;27.70;84.20
11067;DHT22;29763;50.904;5.530;2022-07-06T16:10:59;27.80;83.70